Aeroporto :







RITROVATECI SU...

 
LOGIN :

Iscrizione | Disclaimer

   EN    FR    IT 

 









Sommario :    VFR   VFR Marginale   IFR   IFR Intensivo   IFR Molto Intensivo
Visibilità : 
Base nubi : 
>= 8 km
>= 3000ft
5 / 8 km
1000 / 3000 ft
1500m / 5 km
500 / 1000 ft
800 / 1500m
200 / 500 ft
< 800m
< 200 ft
Simboli :   Temporali  Nebbia  Neve Forte  Precipitazioni Forti  Vento > 20 kt






- Altitudine del aeroporto : 167 ft
- Codice IATA : YAW


CYAW - CFB Shearwater

ULTIMO METAR :
  • 131700Z 29019G29KT 15SM BKN040 OVC250 M03/M09 A2978 RMK SC5CI3 DA-1784FT SLP086

METARs OBSOLETI :
  • 131600Z 27018G32KT 15SM FEW040 FEW050 BKN190 M03/M09 A2976 RMK CU1SC2AS6 DA-1827FT SLP079
  • 131524Z 27019G32KT 15SM BKN040 OVC190 M03/M09 A2975 RMK SC5AS3 DA-1813FT SLP077
  • 131500Z 28018KT 12SM -SHSN FEW026 SCT045 OVC190 M03/M08 A2974 RMK CU1SC4AS4 DA-1823FT SLP074
  • 131447Z 30021G27KT 3SM -SHSN BKN020 OVC190 M04/M07 A2974 RMK SC5AS3 DA-1860FT SLP074

TAF AMD TAF CYAW
Valido dal 13 a 13 ore il 14 a 00 ore UTC


131316Z 1313/1324 27015G25KT P6SM BKN030 OVC150
TEMPO 1313/1315 21/2SM -SHSN BLSN BR VV012
FM131500 28020G30KT P6SM BKN030 BKN200
TEMPO 1315/1318 6SM -SHSN BKN025
FM131800 29020G30KT P6SM BKN030
FM132300 30015G25KT P6SM BKN030 RMK NXT FCST BY 131800Z



MetMap, La meteo Aeronautica in un colpo d'occhio ! - Copyright ORBIFLY Dicembre 2007 - Disclaimer

ORBIFLY MET'MAP TEAM :

Programmazione e sviluppo : Alexandra Zaïnal
Concezione e sviluppo : Baudouin d'Aumeries
Co-Programmazione e sviluppo : Marc-Olivier Méhu
Supporto tecnico e logistico : Manuel Goepfert
Aiuto per la traduzione : Arnaldo La Scala

Contatto : metmap@orbifly.com




FONTI E CREDITI :

   NOAA